Forecasts are only available for sites displaying the forecast symbol.

Some water levels are actually in metres AHD (Australian Height Datum), click individual sites for more details.

Scroll for more >

River gauges, storages, and weirs in the Murray–Darling Basin

Type Locationsort descending River Water level Flow Volume Release Water temp Salinity Rainfall
River Gauge Albury (Union Bridge) Murray 1.75 m 22/11/2019 6:00 Not measured Not measured Not measured 17.6°C 22/11/2019 6:00 47.5 μS/cm 22/11/2019 6:00 Not measured Full data
River Gauge Balranald Murrumbidgee 1.85 m 22/11/2019 5:45 1436 ML/Day 22/11/2019 5:45 Not measured Not measured 22.5°C 22/11/2019 5:45 88.1 μS/cm 22/11/2019 5:45 Not measured Full data
River Gauge Bandiana Kiewa 1.34 m 22/11/2019 5:45 945 ML/Day 22/11/2019 5:45 Not measured Not measured 19.5°C 22/11/2019 5:45 28.1 μS/cm 22/11/2019 5:45 Not measured Full data
River Gauge Barmah Choke Murray 2.31 m 22/11/2019 5:45 6428 ML/Day 22/11/2019 5:45 Not measured Not measured Not measured Not measured Not measured Full data
River Gauge Biggara Murray 0.39 m 22/11/2019 6:00 409 ML/Day 22/11/2019 6:00 Not measured Not measured 18.5°C 22/11/2019 6:00 69.5 μS/cm 22/11/2019 6:00 0.0 mm 21/11/2019 9:00 Full data
River Gauge Bringenbrong Bridge Murray 1.11 m 22/11/2019 6:00 1575 ML/Day 22/11/2019 6:00 Not measured Not measured Not measured Not measured Not measured Full data
River Gauge Burtundy Darling 0.5 m 22/11/2019 5:45 1 ML/Day 22/11/2019 5:45 Not measured Not measured 12.8°C 22/11/2019 5:45 1157.8 μS/cm 3/09/2019 14:45 Not measured Full data
River Gauge Colemans Mitta 1.95 m 22/11/2019 6:30 3163 ML/Day 22/11/2019 6:30 Not measured Not measured 12.9°C 22/11/2019 5:45 51.4 μS/cm 22/11/2019 5:45 Not measured Full data
River Gauge Colignan Murray 2.27 m 22/11/2019 5:45 9125 ML/Day 22/11/2019 5:45 Not measured Not measured 21.8°C 22/11/2019 5:45 80.2 μS/cm 22/11/2019 5:45 Not measured Full data
River Gauge Corowa Murray 2.39 m 22/11/2019 6:00 10430 ML/Day 22/11/2019 6:00 Not measured Not measured 20.5°C 22/11/2019 6:00 54.9 μS/cm 22/11/2019 6:00 Not measured Full data
Storage Dartmouth Dam Mitta 454.12 m 22/11/2019 6:30 Not measured 2097 GL 22/11/2019 6:30 Not measured Not measured Not measured Not measured Full data
River Gauge Doctors Point Murray 2.77 m 22/11/2019 6:00 12232 ML/Day 22/11/2019 6:00 Not measured Not measured 17.4°C 22/11/2019 6:00 55.4 μS/cm 22/11/2019 6:00 Not measured Full data
River Gauge Echuca Wharf Murray 86.84 m 22/11/2019 3:45 Not measured Not measured Not measured Not measured Not measured Not measured Full data
River Gauge Edward Escape Wakool 0.79 m 22/11/2019 5:45 813 ML/Day 22/11/2019 5:45 Not measured Not measured 21.0°C 22/11/2019 5:45 59.7 μS/cm 22/11/2019 5:45 Not measured Full data
River Gauge Edward River Offtake Murray 2.41 m 22/11/2019 5:45 1571 ML/Day 22/11/2019 5:45 Not measured Not measured 22.4°C 22/11/2019 5:45 43.9 μS/cm 22/11/2019 5:45 Not measured Full data
Weirs Euston Weir Downstream Murray 43.59 m 22/11/2019 5:45 9852 ML/Day 22/11/2019 5:45 Not measured Not measured 21.7°C 22/11/2019 5:45 74.2 μS/cm 22/11/2019 5:45 Not measured Full data
Weirs Euston Weir Upstream Murray 48.04 m 21/11/2019 7:45 Not measured 43 GL 21/11/2019 7:45 Not measured Not measured Not measured 0.0 mm 21/02/2019 9:00 Full data
River Gauge Flow to South Australia Murray Not measured Not measured Not measured 5618.2 ML/d20/11/2019 7:45 Not measured Not measured Not measured Full data
River Gauge Frenchman Creek Murray 27.44 m 20/11/2019 7:45 Not measured Not measured 2604.0 ML/d20/11/2019 7:45 Not measured Not measured Not measured Full data
River Gauge Gulpa Creek Offtake Murray 2.31 m 22/11/2019 5:45 243 ML/Day 22/11/2019 5:45 Not measured Not measured Not measured Not measured Not measured Full data
River Gauge Hinnomunjie Mitta 0.7 m 22/11/2019 5:45 484 ML/Day 22/11/2019 5:45 Not measured Not measured 18.2°C 22/11/2019 5:45 22.1 μS/cm 22/11/2019 5:45 0.0 mm 21/11/2019 9:00 Full data
Storage Hume Dam Murray 179.46 m 22/11/2019 6:00 Not measured 1068 GL 22/11/2019 6:00 10049.0 ML/d21/11/2019 8:00 Not measured Not measured 0.0 mm 21/11/2019 9:00 Full data
River Gauge Jingellic Murray 1.58 m 22/11/2019 5:45 3667 ML/Day 22/11/2019 5:45 Not measured Not measured 21.0°C 22/11/2019 5:45 30.3 μS/cm 22/11/2019 5:45 0.0 mm 21/11/2019 9:00 Full data
River Gauge Kerang Loddon 0.56 m 22/11/2019 5:45 691 ML/Day 22/11/2019 5:45 Not measured Not measured 20.5°C 22/11/2019 5:45 110.4 μS/cm 22/11/2019 5:45 Not measured Full data
River Gauge Lake Albert Murray 0.81 m 22/11/2019 5:45 Not measured 281 GL 22/11/2019 5:45 Not measured Not measured Not measured Not measured Full data
River Gauge Lake Alexandrina Murray 0.79 m 22/11/2019 5:45 Not measured 1640 GL 22/11/2019 5:45 Not measured Not measured 920.3 μS/cm 21/11/2019 19:45 Not measured Full data
Storage Lake Victoria Murray 25.61 m 22/11/2019 4:45 Not measured 514 GL 22/11/2019 4:45 Not measured 20.2°C 22/11/2019 4:45 137.4 μS/cm 22/11/2019 4:45 Not measured Full data
Weirs Lock 1 Downstream Murray 0.88 m 22/11/2019 4:45 Not measured Not measured 2532.1 ML/d20/11/2019 7:45 Not measured Not measured Not measured Full data
Weirs Lock 1 Upstream Murray 3.23 m 22/11/2019 4:45 Not measured Not measured Not measured 21.6°C 22/11/2019 4:45 162.6 μS/cm 22/11/2019 4:45 Not measured Full data
Weirs Lock 2 Downstream Murray 3.3 m 22/11/2019 4:45 Not measured Not measured Not measured Not measured Not measured Not measured Full data
Weirs Lock 2 Upstream Murray 6.12 m 22/11/2019 4:45 Not measured Not measured Not measured 22.1°C 22/11/2019 4:45 184.2 μS/cm 22/11/2019 4:45 Not measured Full data
Weirs Lock 3 Downstream Murray 6.26 m 22/11/2019 4:45 Not measured Not measured Not measured Not measured Not measured Not measured Full data
Weirs Lock 3 Upstream Murray 9.81 m 22/11/2019 4:45 Not measured Not measured Not measured Not measured Not measured Not measured Full data
Weirs Lock 4 Downstream Murray 10.3 m 22/11/2019 4:45 Not measured Not measured Not measured Not measured Not measured Not measured Full data
Weirs Lock 4 Upstream Murray 13.23 m 22/11/2019 4:45 Not measured Not measured Not measured Not measured Not measured Not measured Full data
Weirs Lock 5 Downstream Murray 13.34 m 22/11/2019 4:45 Not measured Not measured Not measured Not measured Not measured Not measured Full data
Weirs Lock 5 Upstream Murray 16.32 m 22/11/2019 4:45 Not measured Not measured Not measured 22.5°C 22/11/2019 4:45 121.6 μS/cm 22/11/2019 4:45 Not measured Full data
Weirs Lock 6 Downstream Murray 16.37 m 22/11/2019 4:45 Not measured Not measured Not measured Not measured Not measured Not measured Full data
Weirs Lock 6 Upstream Murray 19.24 m 22/11/2019 4:45 Not measured Not measured Not measured 21.8°C 22/11/2019 4:45 121.4 μS/cm 22/11/2019 4:45 Not measured Full data
Weirs Lock 7 Downstream Murray 20.14 m 22/11/2019 4:45 Not measured Not measured Not measured Not measured Not measured Not measured Full data
Weirs Lock 7 Upstream Murray 22.18 m 22/11/2019 4:45 Not measured Not measured Not measured 22.4°C 22/11/2019 4:45 89.4 μS/cm 22/11/2019 4:45 Not measured Full data
Weirs Lock 8 Upstream Murray 24.96 m 22/11/2019 4:45 Not measured Not measured Not measured 21.7°C 22/11/2019 4:45 89.1 μS/cm 22/11/2019 4:45 Not measured Full data
Weirs Lock 9 Downstream Murray 24.96 m 22/11/2019 4:45 Not measured Not measured Not measured Not measured Not measured Not measured Full data
Weirs Lock 9 Upstream Murray 27.43 m 22/11/2019 4:45 Not measured Not measured Not measured 22.2°C 22/11/2019 4:45 88.7 μS/cm 22/11/2019 4:45 Not measured Full data
River Gauge McCoy Bridge Goulburn 1.43 m 22/11/2019 5:45 881 ML/Day 22/11/2019 5:45 Not measured Not measured 21.8°C 22/11/2019 5:45 84.5 μS/cm 22/11/2019 5:45 Not measured Full data
Storage Menindee Lakes Darling Not measured Not measured 10 GL 21/11/2019 7:45 Not measured Not measured Not measured Not measured Full data
Weirs Mildura Weir downstream Murray 31.09 m 22/11/2019 5:45 Not measured Not measured Not measured 24.0°C 22/11/2019 5:45 88.5 μS/cm 22/11/2019 5:45 Not measured Full data
River Gauge Morgan Downstream Murray Not measured Not measured Not measured 2793.0 ML/d22/11/2019 4:45 Not measured 190.8 μS/cm 22/11/2019 3:45 Not measured Full data
River Gauge Mulwala Canal Murray Not measured Not measured Not measured 1338.0 ML/d21/11/2019 8:45 Not measured Not measured Not measured Full data
River Gauge Mundoo Barrage Murray 0.5 m 21/11/2019 7:45 Not measured Not measured Not measured Not measured Not measured Not measured Full data
River Gauge Murray Bridge Murray 0.78 m 22/11/2019 4:45 Not measured Not measured Not measured 19.8°C 22/11/2019 4:45 232.4 μS/cm 22/11/2019 4:45 Not measured Full data
River Gauge Peechelba Ovens 126.6 m 22/11/2019 5:45 709 ML/Day 22/11/2019 5:45 Not measured Not measured 22.0°C 22/11/2019 5:45 44.6 μS/cm 22/11/2019 5:45 Not measured Full data
River Gauge Pinegrove Murray 1.05 m 22/11/2019 6:00 175 ML/Day 22/11/2019 6:00 Not measured Not measured 21.1°C 22/11/2019 6:00 71.9 μS/cm 22/11/2019 6:00 0.0 mm 21/11/2019 9:00 Full data
River Gauge Redcliffs Murray Not measured Not measured Not measured Not measured Not measured 43.6 μS/cm 22/10/2019 13:45 Not measured Full data
River Gauge Rochester Campaspe 1.81 m 22/11/2019 5:45 149 ML/Day 22/11/2019 5:45 Not measured Not measured 20.9°C 22/11/2019 5:45 598.0 μS/cm 22/11/2019 5:45 0.0 mm 21/11/2019 9:00 Full data
River Gauge Rufus River Murray 20.26 m 20/11/2019 7:45 Not measured Not measured 1138.7 ML/d20/11/2019 7:45 Not measured 158.3 μS/cm 22/11/2019 4:00 Not measured Full data
Weirs Steven's Weir Downstream Edward 2.32 m 22/11/2019 5:45 2493 ML/Day 22/11/2019 5:45 Not measured Not measured 22.1°C 22/11/2019 5:45 51.6 μS/cm 22/11/2019 5:45 Not measured Full data
Weirs Steven's Weir Upstream Edward 4.41 m 22/11/2019 5:45 Not measured Not measured Not measured Not measured Not measured Not measured Full data
River Gauge Stoney Crossing Murray 1.51 m 22/11/2019 5:45 675 ML/Day 22/11/2019 5:45 Not measured 691.5 ML/d21/11/2019 7:45 22.7°C 22/11/2019 5:45 121.5 μS/cm 22/11/2019 5:45 Not measured Full data
River Gauge Swan Hill Murray 1.29 m 22/11/2019 5:45 6581 ML/Day 22/11/2019 5:45 Not measured Not measured 21.4°C 22/11/2019 5:45 68.9 μS/cm 22/11/2019 5:45 Not measured Full data
River Gauge Tallandoon Mitta 2.28 m 22/11/2019 5:45 3510 ML/Day 22/11/2019 5:45 Not measured Not measured 14.9°C 22/11/2019 5:45 38.6 μS/cm 22/11/2019 5:45 Not measured Full data
River Gauge Tauwitchere Barrage Murray 0.85 m 22/11/2019 4:45 Not measured Not measured Not measured Not measured Not measured Not measured Full data
River Gauge Tocumwal Murray 2.11 m 22/11/2019 5:45 9167 ML/Day 22/11/2019 5:45 Not measured Not measured 20.8°C 22/11/2019 5:45 48.7 μS/cm 22/11/2019 5:45 Not measured Full data
River Gauge Torrumbarry Headworks Murray 84.77 m 22/11/2019 5:45 Not measured Not measured 1458.3 ML/d22/11/2019 5:45 Not measured Not measured Not measured Full data
Weirs Torrumbarry Weir Downstream Murray 2.07 m 22/11/2019 5:45 5799 ML/Day 22/11/2019 5:45 Not measured Not measured 21.5°C 22/11/2019 5:45 68.2 μS/cm 22/11/2019 5:45 Not measured Full data
Weirs Torrumbarry Weir Upstream Murray 86.05 m 22/11/2019 5:30 Not measured 37 GL 21/11/2019 7:45 Not measured 21.4°C 21/11/2019 7:45 67.8 μS/cm 22/11/2019 4:45 0.0 mm 20/11/2019 9:00 Full data
River Gauge Wakool Canal Wakool 0.46 m 22/11/2019 5:45 Not measured Not measured 69.1 ML/d21/11/2019 8:45 Not measured Not measured Not measured Full data
River Gauge Wakool Junction Murray 3.46 m 4/11/2019 12:45 10231 ML/Day 4/11/2019 12:45 Not measured Not measured 20.8°C 4/11/2019 12:45 51.1 μS/cm 4/11/2019 12:45 Not measured Full data
River Gauge Weir 32 Upstream Darling 0.95 m 22/11/2019 5:45 1 ML/Day 22/11/2019 5:45 Not measured Not measured 23.3°C 22/11/2019 5:45 1508.1 μS/cm 22/11/2019 5:45 Not measured Full data
Weirs Wentworth Weir Murray 27.75 m 22/11/2019 5:45 Not measured Not measured 6804.0 ML/d21/11/2019 8:45 Not measured 85.0 μS/cm 20/11/2019 7:45 0.0 mm 31/01/2019 9:00 Full data
River Gauge Wilcania Darling -0.27 m 22/11/2019 5:45 1 ML/Day 22/11/2019 5:45 Not measured Not measured 19.2°C 22/11/2019 5:45 0.0 μS/cm 22/11/2019 5:45 Not measured Full data
River Gauge Yarrawonga Main Channel Murray 123.52 m 22/11/2019 5:45 Not measured Not measured 835.7 ML/d22/11/2019 5:45 Not measured Not measured Not measured Full data
Weirs Yarrawonga Weir Downstream Murray 1.54 m 22/11/2019 6:00 9086 ML/Day 22/11/2019 6:00 Not measured Not measured 21.3°C 22/11/2019 6:00 46.7 μS/cm 22/11/2019 6:00 Not measured Full data
Weirs Yarrawonga Weir Upstream Murray 124.69 m 22/11/2019 5:45 Not measured Not measured Not measured Not measured Not measured 0.0 mm 21/11/2019 9:00 Full data